sensor_id;sensor_type;location;lat;lon;timestamp;P1;durP1;ratioP1;P2;durP2;ratioP2
23310;SDS011;11828;51.508;18.118;2023-12-04T00:02:02;28.05;;;11.23;;
23310;SDS011;11828;51.508;18.118;2023-12-04T00:04:28;24.20;;;11.35;;
23310;SDS011;11828;51.508;18.118;2023-12-04T00:06:54;28.92;;;10.50;;
23310;SDS011;11828;51.508;18.118;2023-12-04T00:09:20;22.23;;;9.63;;
23310;SDS011;11828;51.508;18.118;2023-12-04T00:11:48;36.88;;;11.55;;
23310;SDS011;11828;51.508;18.118;2023-12-04T00:14:15;25.85;;;10.45;;
23310;SDS011;11828;51.508;18.118;2023-12-04T00:16:41;23.25;;;10.10;;
23310;SDS011;11828;51.508;18.118;2023-12-04T00:19:07;26.10;;;10.25;;
23310;SDS011;11828;51.508;18.118;2023-12-04T00:21:34;29.35;;;10.80;;
23310;SDS011;11828;51.508;18.118;2023-12-04T00:24:00;22.63;;;9.63;;
23310;SDS011;11828;51.508;18.118;2023-12-04T00:26:26;22.95;;;9.82;;
23310;SDS011;11828;51.508;18.118;2023-12-04T00:28:53;22.90;;;9.27;;
23310;SDS011;11828;51.508;18.118;2023-12-04T00:31:19;27.55;;;9.50;;
23310;SDS011;11828;51.508;18.118;2023-12-04T00:33:45;26.75;;;10.52;;
23310;SDS011;11828;51.508;18.118;2023-12-04T00:36:11;23.52;;;9.30;;
23310;SDS011;11828;51.508;18.118;2023-12-04T00:38:37;28.90;;;10.65;;
23310;SDS011;11828;51.508;18.118;2023-12-04T00:41:03;25.35;;;9.50;;
23310;SDS011;11828;51.508;18.118;2023-12-04T00:43:30;24.75;;;9.98;;
23310;SDS011;11828;51.508;18.118;2023-12-04T00:45:56;25.42;;;10.32;;
23310;SDS011;11828;51.508;18.118;2023-12-04T00:48:22;26.33;;;10.88;;
23310;SDS011;11828;51.508;18.118;2023-12-04T00:50:48;24.67;;;10.75;;
23310;SDS011;11828;51.508;18.118;2023-12-04T00:53:14;28.60;;;10.57;;
23310;SDS011;11828;51.508;18.118;2023-12-04T00:55:40;28.55;;;11.43;;
23310;SDS011;11828;51.508;18.118;2023-12-04T00:58:06;27.63;;;10.95;;
23310;SDS011;11828;51.508;18.118;2023-12-04T01:00:32;30.67;;;11.35;;
23310;SDS011;11828;51.508;18.118;2023-12-04T01:02:59;30.73;;;11.48;;
23310;SDS011;11828;51.508;18.118;2023-12-04T01:05:25;30.10;;;11.30;;
23310;SDS011;11828;51.508;18.118;2023-12-04T01:07:52;31.55;;;11.73;;
23310;SDS011;11828;51.508;18.118;2023-12-04T01:10:18;30.05;;;11.10;;
23310;SDS011;11828;51.508;18.118;2023-12-04T01:12:44;29.58;;;12.10;;
23310;SDS011;11828;51.508;18.118;2023-12-04T01:15:10;32.38;;;12.57;;
23310;SDS011;11828;51.508;18.118;2023-12-04T01:17:36;34.17;;;12.73;;
23310;SDS011;11828;51.508;18.118;2023-12-04T01:20:02;29.20;;;12.45;;
23310;SDS011;11828;51.508;18.118;2023-12-04T01:22:30;31.25;;;11.82;;
23310;SDS011;11828;51.508;18.118;2023-12-04T01:24:56;24.75;;;11.45;;
23310;SDS011;11828;51.508;18.118;2023-12-04T01:27:23;28.80;;;11.45;;
23310;SDS011;11828;51.508;18.118;2023-12-04T01:29:48;29.75;;;11.82;;
23310;SDS011;11828;51.508;18.118;2023-12-04T01:32:15;30.05;;;12.55;;
23310;SDS011;11828;51.508;18.118;2023-12-04T01:34:41;29.58;;;12.25;;
23310;SDS011;11828;51.508;18.118;2023-12-04T01:37:07;29.17;;;11.20;;
23310;SDS011;11828;51.508;18.118;2023-12-04T01:39:34;29.30;;;11.55;;
23310;SDS011;11828;51.508;18.118;2023-12-04T01:42:00;26.63;;;11.27;;
23310;SDS011;11828;51.508;18.118;2023-12-04T01:44:26;31.02;;;11.40;;
23310;SDS011;11828;51.508;18.118;2023-12-04T01:46:52;28.63;;;11.52;;
23310;SDS011;11828;51.508;18.118;2023-12-04T01:49:18;29.75;;;11.88;;
23310;SDS011;11828;51.508;18.118;2023-12-04T01:51:45;29.95;;;11.65;;
23310;SDS011;11828;51.508;18.118;2023-12-04T01:54:11;27.30;;;11.38;;
23310;SDS011;11828;51.508;18.118;2023-12-04T01:56:38;30.08;;;11.70;;
23310;SDS011;11828;51.508;18.118;2023-12-04T01:59:04;32.25;;;12.65;;
23310;SDS011;11828;51.508;18.118;2023-12-04T02:01:30;28.92;;;11.73;;
23310;SDS011;11828;51.508;18.118;2023-12-04T02:03:57;30.63;;;11.75;;
23310;SDS011;11828;51.508;18.118;2023-12-04T02:06:26;31.17;;;11.38;;
23310;SDS011;11828;51.508;18.118;2023-12-04T02:08:52;27.80;;;11.43;;
23310;SDS011;11828;51.508;18.118;2023-12-04T02:11:18;28.73;;;12.38;;
23310;SDS011;11828;51.508;18.118;2023-12-04T02:13:44;34.08;;;12.43;;
23310;SDS011;11828;51.508;18.118;2023-12-04T02:16:10;35.80;;;12.48;;
23310;SDS011;11828;51.508;18.118;2023-12-04T02:18:39;31.13;;;11.82;;
23310;SDS011;11828;51.508;18.118;2023-12-04T02:21:05;33.92;;;12.18;;
23310;SDS011;11828;51.508;18.118;2023-12-04T02:23:31;30.77;;;11.98;;
23310;SDS011;11828;51.508;18.118;2023-12-04T02:26:01;28.75;;;11.82;;
23310;SDS011;11828;51.508;18.118;2023-12-04T02:28:35;34.35;;;12.02;;
23310;SDS011;11828;51.508;18.118;2023-12-04T02:31:03;33.53;;;12.93;;
23310;SDS011;11828;51.508;18.118;2023-12-04T02:33:30;38.67;;;14.75;;
23310;SDS011;11828;51.508;18.118;2023-12-04T02:35:59;32.67;;;13.07;;
23310;SDS011;11828;51.508;18.118;2023-12-04T02:38:26;28.95;;;11.93;;
23310;SDS011;11828;51.508;18.118;2023-12-04T02:40:53;31.83;;;11.98;;
23310;SDS011;11828;51.508;18.118;2023-12-04T02:43:20;33.75;;;12.45;;
23310;SDS011;11828;51.508;18.118;2023-12-04T02:45:46;30.15;;;11.38;;
23310;SDS011;11828;51.508;18.118;2023-12-04T02:48:12;25.45;;;11.10;;
23310;SDS011;11828;51.508;18.118;2023-12-04T02:50:39;28.73;;;11.07;;
23310;SDS011;11828;51.508;18.118;2023-12-04T02:53:05;32.58;;;12.15;;
23310;SDS011;11828;51.508;18.118;2023-12-04T02:55:31;29.42;;;11.43;;
23310;SDS011;11828;51.508;18.118;2023-12-04T02:57:57;26.35;;;11.25;;
23310;SDS011;11828;51.508;18.118;2023-12-04T03:00:23;29.30;;;11.70;;
23310;SDS011;11828;51.508;18.118;2023-12-04T03:02:49;28.38;;;11.30;;
23310;SDS011;11828;51.508;18.118;2023-12-04T03:05:15;26.80;;;11.27;;
23310;SDS011;11828;51.508;18.118;2023-12-04T03:07:41;31.05;;;12.13;;
23310;SDS011;11828;51.508;18.118;2023-12-04T03:10:07;31.55;;;12.68;;
23310;SDS011;11828;51.508;18.118;2023-12-04T03:12:33;31.95;;;12.77;;
23310;SDS011;11828;51.508;18.118;2023-12-04T03:14:59;33.55;;;13.00;;
23310;SDS011;11828;51.508;18.118;2023-12-04T03:17:25;34.13;;;14.32;;
23310;SDS011;11828;51.508;18.118;2023-12-04T03:19:52;31.85;;;13.18;;
23310;SDS011;11828;51.508;18.118;2023-12-04T03:22:18;35.97;;;14.38;;
23310;SDS011;11828;51.508;18.118;2023-12-04T03:24:44;31.85;;;13.82;;
23310;SDS011;11828;51.508;18.118;2023-12-04T03:27:10;36.35;;;14.48;;
23310;SDS011;11828;51.508;18.118;2023-12-04T03:29:36;32.30;;;14.18;;
23310;SDS011;11828;51.508;18.118;2023-12-04T03:32:02;37.53;;;15.77;;
23310;SDS011;11828;51.508;18.118;2023-12-04T03:34:29;37.78;;;14.80;;
23310;SDS011;11828;51.508;18.118;2023-12-04T03:36:55;35.13;;;14.70;;
23310;SDS011;11828;51.508;18.118;2023-12-04T03:39:21;36.08;;;14.00;;
23310;SDS011;11828;51.508;18.118;2023-12-04T03:41:47;32.92;;;13.82;;
23310;SDS011;11828;51.508;18.118;2023-12-04T03:44:13;37.33;;;14.68;;
23310;SDS011;11828;51.508;18.118;2023-12-04T03:46:39;41.63;;;15.90;;
23310;SDS011;11828;51.508;18.118;2023-12-04T03:49:06;40.08;;;16.13;;
23310;SDS011;11828;51.508;18.118;2023-12-04T03:51:31;40.88;;;15.60;;
23310;SDS011;11828;51.508;18.118;2023-12-04T03:53:58;45.70;;;17.58;;
23310;SDS011;11828;51.508;18.118;2023-12-04T03:56:24;51.90;;;17.73;;
23310;SDS011;11828;51.508;18.118;2023-12-04T03:58:50;45.90;;;17.23;;
23310;SDS011;11828;51.508;18.118;2023-12-04T04:01:16;42.85;;;16.95;;
23310;SDS011;11828;51.508;18.118;2023-12-04T04:03:42;50.42;;;18.15;;
23310;SDS011;11828;51.508;18.118;2023-12-04T04:06:08;46.47;;;17.80;;
23310;SDS011;11828;51.508;18.118;2023-12-04T04:08:35;49.38;;;18.30;;
23310;SDS011;11828;51.508;18.118;2023-12-04T04:11:01;50.22;;;18.95;;
23310;SDS011;11828;51.508;18.118;2023-12-04T04:13:27;56.25;;;20.88;;
23310;SDS011;11828;51.508;18.118;2023-12-04T04:15:53;51.63;;;19.35;;
23310;SDS011;11828;51.508;18.118;2023-12-04T04:18:19;42.55;;;17.50;;
23310;SDS011;11828;51.508;18.118;2023-12-04T04:20:45;43.22;;;17.30;;
23310;SDS011;11828;51.508;18.118;2023-12-04T04:23:12;44.53;;;17.30;;
23310;SDS011;11828;51.508;18.118;2023-12-04T04:25:38;51.00;;;18.83;;
23310;SDS011;11828;51.508;18.118;2023-12-04T04:28:04;50.60;;;19.23;;
23310;SDS011;11828;51.508;18.118;2023-12-04T04:30:30;52.75;;;19.60;;
23310;SDS011;11828;51.508;18.118;2023-12-04T04:32:56;56.25;;;19.85;;
23310;SDS011;11828;51.508;18.118;2023-12-04T04:35:22;41.63;;;16.67;;
23310;SDS011;11828;51.508;18.118;2023-12-04T04:37:48;42.35;;;16.65;;
23310;SDS011;11828;51.508;18.118;2023-12-04T04:40:14;44.80;;;17.58;;
23310;SDS011;11828;51.508;18.118;2023-12-04T04:42:40;41.75;;;16.92;;
23310;SDS011;11828;51.508;18.118;2023-12-04T04:45:06;45.88;;;17.70;;
23310;SDS011;11828;51.508;18.118;2023-12-04T04:47:33;46.90;;;18.10;;
23310;SDS011;11828;51.508;18.118;2023-12-04T04:49:59;42.08;;;17.52;;
23310;SDS011;11828;51.508;18.118;2023-12-04T04:52:25;47.35;;;17.17;;
23310;SDS011;11828;51.508;18.118;2023-12-04T04:54:51;44.40;;;17.02;;
23310;SDS011;11828;51.508;18.118;2023-12-04T04:57:17;42.42;;;17.75;;
23310;SDS011;11828;51.508;18.118;2023-12-04T04:59:43;44.38;;;17.63;;
23310;SDS011;11828;51.508;18.118;2023-12-04T05:02:09;46.28;;;18.00;;
23310;SDS011;11828;51.508;18.118;2023-12-04T05:04:36;50.95;;;19.55;;
23310;SDS011;11828;51.508;18.118;2023-12-04T05:07:02;43.20;;;16.98;;
23310;SDS011;11828;51.508;18.118;2023-12-04T05:09:28;48.38;;;18.05;;
23310;SDS011;11828;51.508;18.118;2023-12-04T05:11:54;47.80;;;19.10;;
23310;SDS011;11828;51.508;18.118;2023-12-04T05:14:20;73.15;;;28.40;;
23310;SDS011;11828;51.508;18.118;2023-12-04T05:16:46;89.78;;;35.20;;
23310;SDS011;11828;51.508;18.118;2023-12-04T05:19:12;81.00;;;29.90;;
23310;SDS011;11828;51.508;18.118;2023-12-04T05:21:39;58.97;;;24.13;;
23310;SDS011;11828;51.508;18.118;2023-12-04T05:24:04;61.83;;;24.70;;
23310;SDS011;11828;51.508;18.118;2023-12-04T05:26:31;57.33;;;21.83;;
23310;SDS011;11828;51.508;18.118;2023-12-04T05:28:57;54.03;;;21.30;;
23310;SDS011;11828;51.508;18.118;2023-12-04T05:31:23;47.08;;;19.13;;
23310;SDS011;11828;51.508;18.118;2023-12-04T05:33:49;49.22;;;19.88;;
23310;SDS011;11828;51.508;18.118;2023-12-04T05:36:15;51.28;;;18.88;;
23310;SDS011;11828;51.508;18.118;2023-12-04T05:38:41;48.35;;;17.88;;
23310;SDS011;11828;51.508;18.118;2023-12-04T05:41:08;41.72;;;16.13;;
23310;SDS011;11828;51.508;18.118;2023-12-04T05:43:34;42.10;;;16.88;;
23310;SDS011;11828;51.508;18.118;2023-12-04T05:46:00;48.13;;;17.17;;
23310;SDS011;11828;51.508;18.118;2023-12-04T05:48:27;48.25;;;19.48;;
23310;SDS011;11828;51.508;18.118;2023-12-04T05:50:53;49.40;;;18.83;;
23310;SDS011;11828;51.508;18.118;2023-12-04T05:53:19;50.33;;;19.33;;
23310;SDS011;11828;51.508;18.118;2023-12-04T05:55:46;48.25;;;18.40;;
23310;SDS011;11828;51.508;18.118;2023-12-04T05:58:11;49.10;;;18.85;;
23310;SDS011;11828;51.508;18.118;2023-12-04T06:00:38;49.63;;;19.42;;
23310;SDS011;11828;51.508;18.118;2023-12-04T06:03:04;43.90;;;17.58;;
23310;SDS011;11828;51.508;18.118;2023-12-04T06:05:30;47.78;;;18.73;;
23310;SDS011;11828;51.508;18.118;2023-12-04T06:07:56;41.15;;;16.27;;
23310;SDS011;11828;51.508;18.118;2023-12-04T06:10:23;44.15;;;17.40;;
23310;SDS011;11828;51.508;18.118;2023-12-04T06:12:49;47.05;;;17.60;;
23310;SDS011;11828;51.508;18.118;2023-12-04T06:15:15;42.25;;;17.40;;
23310;SDS011;11828;51.508;18.118;2023-12-04T06:17:41;49.50;;;18.70;;
23310;SDS011;11828;51.508;18.118;2023-12-04T06:20:08;55.55;;;19.00;;
23310;SDS011;11828;51.508;18.118;2023-12-04T06:22:36;43.92;;;17.63;;
23310;SDS011;11828;51.508;18.118;2023-12-04T06:25:03;49.97;;;17.95;;
23310;SDS011;11828;51.508;18.118;2023-12-04T06:27:30;41.05;;;17.55;;
23310;SDS011;11828;51.508;18.118;2023-12-04T06:29:57;68.35;;;26.85;;
23310;SDS011;11828;51.508;18.118;2023-12-04T06:32:23;87.90;;;28.40;;
23310;SDS011;11828;51.508;18.118;2023-12-04T06:34:50;127.90;;;38.03;;
23310;SDS011;11828;51.508;18.118;2023-12-04T06:37:16;132.13;;;38.92;;
23310;SDS011;11828;51.508;18.118;2023-12-04T06:39:42;117.18;;;35.20;;
23310;SDS011;11828;51.508;18.118;2023-12-04T06:42:12;76.78;;;27.00;;
23310;SDS011;11828;51.508;18.118;2023-12-04T06:44:39;324.48;;;90.82;;
23310;SDS011;11828;51.508;18.118;2023-12-04T06:47:05;122.00;;;35.75;;
23310;SDS011;11828;51.508;18.118;2023-12-04T06:49:34;83.45;;;28.17;;
23310;SDS011;11828;51.508;18.118;2023-12-04T06:52:00;69.43;;;26.92;;
23310;SDS011;11828;51.508;18.118;2023-12-04T06:54:27;68.65;;;27.23;;
23310;SDS011;11828;51.508;18.118;2023-12-04T06:56:53;161.00;;;39.97;;
23310;SDS011;11828;51.508;18.118;2023-12-04T06:59:19;111.95;;;35.05;;
23310;SDS011;11828;51.508;18.118;2023-12-04T07:01:45;99.40;;;34.47;;
23310;SDS011;11828;51.508;18.118;2023-12-04T07:04:12;72.55;;;26.83;;
23310;SDS011;11828;51.508;18.118;2023-12-04T07:06:38;67.75;;;24.90;;
23310;SDS011;11828;51.508;18.118;2023-12-04T07:09:06;62.30;;;22.27;;
23310;SDS011;11828;51.508;18.118;2023-12-04T07:11:35;64.35;;;24.52;;
23310;SDS011;11828;51.508;18.118;2023-12-04T07:14:01;76.15;;;27.50;;
23310;SDS011;11828;51.508;18.118;2023-12-04T07:16:28;80.55;;;26.40;;
23310;SDS011;11828;51.508;18.118;2023-12-04T07:18:54;53.78;;;21.48;;
23310;SDS011;11828;51.508;18.118;2023-12-04T07:21:20;54.78;;;21.52;;
23310;SDS011;11828;51.508;18.118;2023-12-04T07:23:47;54.90;;;21.98;;
23310;SDS011;11828;51.508;18.118;2023-12-04T07:26:13;69.72;;;23.02;;
23310;SDS011;11828;51.508;18.118;2023-12-04T07:28:39;65.07;;;21.58;;
23310;SDS011;11828;51.508;18.118;2023-12-04T07:31:05;57.28;;;22.33;;
23310;SDS011;11828;51.508;18.118;2023-12-04T07:33:32;79.22;;;25.83;;
23310;SDS011;11828;51.508;18.118;2023-12-04T07:35:58;141.65;;;42.85;;
23310;SDS011;11828;51.508;18.118;2023-12-04T07:38:24;148.90;;;43.03;;
23310;SDS011;11828;51.508;18.118;2023-12-04T07:40:50;174.90;;;45.47;;
23310;SDS011;11828;51.508;18.118;2023-12-04T07:43:16;196.23;;;53.85;;
23310;SDS011;11828;51.508;18.118;2023-12-04T07:45:43;121.03;;;37.20;;
23310;SDS011;11828;51.508;18.118;2023-12-04T07:48:09;96.43;;;33.33;;
23310;SDS011;11828;51.508;18.118;2023-12-04T07:50:35;72.05;;;27.58;;
23310;SDS011;11828;51.508;18.118;2023-12-04T07:53:03;94.18;;;29.63;;
23310;SDS011;11828;51.508;18.118;2023-12-04T07:55:30;90.88;;;30.23;;
23310;SDS011;11828;51.508;18.118;2023-12-04T07:57:57;84.60;;;30.08;;
23310;SDS011;11828;51.508;18.118;2023-12-04T08:00:23;87.75;;;29.80;;
23310;SDS011;11828;51.508;18.118;2023-12-04T08:02:51;82.25;;;29.35;;
23310;SDS011;11828;51.508;18.118;2023-12-04T08:05:17;67.72;;;26.15;;
23310;SDS011;11828;51.508;18.118;2023-12-04T08:07:43;76.65;;;28.13;;
23310;SDS011;11828;51.508;18.118;2023-12-04T08:10:10;90.55;;;31.92;;
23310;SDS011;11828;51.508;18.118;2023-12-04T08:12:36;75.57;;;26.88;;
23310;SDS011;11828;51.508;18.118;2023-12-04T08:15:02;74.90;;;25.25;;
23310;SDS011;11828;51.508;18.118;2023-12-04T08:17:30;58.88;;;24.20;;
23310;SDS011;11828;51.508;18.118;2023-12-04T08:19:56;60.80;;;24.95;;
23310;SDS011;11828;51.508;18.118;2023-12-04T08:22:22;76.75;;;30.80;;
23310;SDS011;11828;51.508;18.118;2023-12-04T08:24:48;80.80;;;34.10;;
23310;SDS011;11828;51.508;18.118;2023-12-04T08:27:14;85.05;;;36.80;;
23310;SDS011;11828;51.508;18.118;2023-12-04T08:29:40;95.70;;;42.75;;
23310;SDS011;11828;51.508;18.118;2023-12-04T08:32:07;119.60;;;42.42;;
23310;SDS011;11828;51.508;18.118;2023-12-04T08:34:33;101.90;;;42.22;;
23310;SDS011;11828;51.508;18.118;2023-12-04T08:36:59;108.38;;;42.92;;
23310;SDS011;11828;51.508;18.118;2023-12-04T08:39:25;92.07;;;37.70;;
23310;SDS011;11828;51.508;18.118;2023-12-04T08:41:52;96.63;;;39.83;;
23310;SDS011;11828;51.508;18.118;2023-12-04T08:44:18;110.53;;;45.88;;
23310;SDS011;11828;51.508;18.118;2023-12-04T08:46:44;102.40;;;44.65;;
23310;SDS011;11828;51.508;18.118;2023-12-04T08:49:10;112.45;;;47.97;;
23310;SDS011;11828;51.508;18.118;2023-12-04T08:51:36;174.70;;;66.15;;
23310;SDS011;11828;51.508;18.118;2023-12-04T08:54:02;351.80;;;107.22;;
23310;SDS011;11828;51.508;18.118;2023-12-04T08:56:30;331.33;;;106.63;;
23310;SDS011;11828;51.508;18.118;2023-12-04T08:58:56;190.73;;;64.47;;
23310;SDS011;11828;51.508;18.118;2023-12-04T09:01:23;159.40;;;57.42;;
23310;SDS011;11828;51.508;18.118;2023-12-04T09:03:49;266.83;;;86.00;;
23310;SDS011;11828;51.508;18.118;2023-12-04T09:06:17;198.38;;;69.72;;
23310;SDS011;11828;51.508;18.118;2023-12-04T09:08:43;156.50;;;55.53;;
23310;SDS011;11828;51.508;18.118;2023-12-04T09:11:09;165.38;;;59.10;;
23310;SDS011;11828;51.508;18.118;2023-12-04T09:13:35;225.88;;;73.05;;
23310;SDS011;11828;51.508;18.118;2023-12-04T09:16:01;173.63;;;59.25;;
23310;SDS011;11828;51.508;18.118;2023-12-04T09:18:27;164.60;;;56.80;;
23310;SDS011;11828;51.508;18.118;2023-12-04T09:20:53;507.85;;;271.05;;
23310;SDS011;11828;51.508;18.118;2023-12-04T09:23:20;359.45;;;123.93;;
23310;SDS011;11828;51.508;18.118;2023-12-04T09:25:46;372.58;;;134.65;;
23310;SDS011;11828;51.508;18.118;2023-12-04T09:28:12;323.40;;;118.72;;
23310;SDS011;11828;51.508;18.118;2023-12-04T09:30:39;357.85;;;139.45;;
23310;SDS011;11828;51.508;18.118;2023-12-04T09:33:05;327.60;;;134.52;;
23310;SDS011;11828;51.508;18.118;2023-12-04T09:35:32;298.00;;;116.63;;
23310;SDS011;11828;51.508;18.118;2023-12-04T09:37:58;290.17;;;128.00;;
23310;SDS011;11828;51.508;18.118;2023-12-04T09:40:25;296.60;;;113.77;;
23310;SDS011;11828;51.508;18.118;2023-12-04T09:42:51;318.27;;;144.20;;
23310;SDS011;11828;51.508;18.118;2023-12-04T09:45:19;440.20;;;270.77;;
23310;SDS011;11828;51.508;18.118;2023-12-04T09:47:47;312.80;;;110.70;;
23310;SDS011;11828;51.508;18.118;2023-12-04T09:50:14;330.73;;;156.23;;
23310;SDS011;11828;51.508;18.118;2023-12-04T09:52:49;331.00;;;166.20;;
23310;SDS011;11828;51.508;18.118;2023-12-04T09:55:16;374.97;;;262.00;;
23310;SDS011;11828;51.508;18.118;2023-12-04T09:57:43;401.70;;;248.13;;
23310;SDS011;11828;51.508;18.118;2023-12-04T10:00:14;283.00;;;101.43;;
23310;SDS011;11828;51.508;18.118;2023-12-04T10:02:41;310.80;;;132.85;;
23310;SDS011;11828;51.508;18.118;2023-12-04T10:05:08;256.45;;;102.25;;
23310;SDS011;11828;51.508;18.118;2023-12-04T10:07:35;187.15;;;87.15;;
23310;SDS011;11828;51.508;18.118;2023-12-04T10:10:04;154.00;;;81.47;;
23310;SDS011;11828;51.508;18.118;2023-12-04T10:12:31;142.27;;;78.75;;
23310;SDS011;11828;51.508;18.118;2023-12-04T10:15:03;137.98;;;77.88;;
23310;SDS011;11828;51.508;18.118;2023-12-04T10:17:36;167.48;;;84.85;;
23310;SDS011;11828;51.508;18.118;2023-12-04T10:20:14;150.00;;;81.78;;
23310;SDS011;11828;51.508;18.118;2023-12-04T10:22:58;130.10;;;70.68;;
23310;SDS011;11828;51.508;18.118;2023-12-04T10:25:27;118.05;;;66.28;;
23310;SDS011;11828;51.508;18.118;2023-12-04T10:28:06;109.82;;;63.53;;
23310;SDS011;11828;51.508;18.118;2023-12-04T10:30:36;102.50;;;53.47;;
23310;SDS011;11828;51.508;18.118;2023-12-04T10:33:03;95.70;;;52.25;;
23310;SDS011;11828;51.508;18.118;2023-12-04T10:35:31;108.63;;;53.58;;
23310;SDS011;11828;51.508;18.118;2023-12-04T10:38:01;95.32;;;47.72;;
23310;SDS011;11828;51.508;18.118;2023-12-04T10:40:30;90.40;;;39.33;;
23310;SDS011;11828;51.508;18.118;2023-12-04T10:43:09;101.57;;;48.15;;
23310;SDS011;11828;51.508;18.118;2023-12-04T10:45:37;95.40;;;48.85;;
23310;SDS011;11828;51.508;18.118;2023-12-04T10:48:04;105.13;;;49.40;;
23310;SDS011;11828;51.508;18.118;2023-12-04T10:50:32;90.07;;;43.53;;
23310;SDS011;11828;51.508;18.118;2023-12-04T10:53:03;88.25;;;41.50;;
23310;SDS011;11828;51.508;18.118;2023-12-04T10:55:31;91.75;;;42.42;;
23310;SDS011;11828;51.508;18.118;2023-12-04T10:57:58;99.07;;;42.72;;
23310;SDS011;11828;51.508;18.118;2023-12-04T11:00:30;119.97;;;44.03;;
23310;SDS011;11828;51.508;18.118;2023-12-04T11:03:02;98.50;;;39.80;;
23310;SDS011;11828;51.508;18.118;2023-12-04T11:05:59;103.57;;;42.08;;
23310;SDS011;11828;51.508;18.118;2023-12-04T11:08:28;114.85;;;44.60;;
23310;SDS011;11828;51.508;18.118;2023-12-04T11:11:04;96.47;;;41.53;;
23310;SDS011;11828;51.508;18.118;2023-12-04T11:13:34;94.25;;;40.42;;
23310;SDS011;11828;51.508;18.118;2023-12-04T11:16:09;123.75;;;42.13;;
23310;SDS011;11828;51.508;18.118;2023-12-04T11:19:01;103.70;;;40.90;;
23310;SDS011;11828;51.508;18.118;2023-12-04T11:21:57;96.93;;;39.85;;
23310;SDS011;11828;51.508;18.118;2023-12-04T11:24:24;99.28;;;47.30;;
23310;SDS011;11828;51.508;18.118;2023-12-04T11:26:51;115.47;;;48.15;;
23310;SDS011;11828;51.508;18.118;2023-12-04T11:29:18;126.53;;;58.25;;
23310;SDS011;11828;51.508;18.118;2023-12-04T11:31:45;118.07;;;61.15;;
23310;SDS011;11828;51.508;18.118;2023-12-04T11:34:11;125.60;;;68.03;;
23310;SDS011;11828;51.508;18.118;2023-12-04T11:36:38;129.32;;;72.05;;
23310;SDS011;11828;51.508;18.118;2023-12-04T11:39:08;152.95;;;79.35;;
23310;SDS011;11828;51.508;18.118;2023-12-04T11:41:36;161.55;;;83.30;;
23310;SDS011;11828;51.508;18.118;2023-12-04T11:44:03;163.68;;;85.00;;
23310;SDS011;11828;51.508;18.118;2023-12-04T11:46:38;152.98;;;83.35;;
23310;SDS011;11828;51.508;18.118;2023-12-04T11:51:58;154.07;;;77.95;;
23310;SDS011;11828;51.508;18.118;2023-12-04T11:54:25;152.73;;;81.57;;
23310;SDS011;11828;51.508;18.118;2023-12-04T11:56:57;134.43;;;76.07;;
23310;SDS011;11828;51.508;18.118;2023-12-04T11:59:28;126.22;;;72.78;;
23310;SDS011;11828;51.508;18.118;2023-12-04T12:01:54;139.50;;;77.47;;
23310;SDS011;11828;51.508;18.118;2023-12-04T12:04:22;93.00;;;45.65;;
23310;SDS011;11828;51.508;18.118;2023-12-04T12:06:49;94.03;;;39.03;;
23310;SDS011;11828;51.508;18.118;2023-12-04T12:09:15;84.43;;;35.55;;
23310;SDS011;11828;51.508;18.118;2023-12-04T12:11:42;91.35;;;35.20;;
23310;SDS011;11828;51.508;18.118;2023-12-04T12:14:09;82.10;;;36.10;;
23310;SDS011;11828;51.508;18.118;2023-12-04T12:16:35;105.05;;;36.33;;
23310;SDS011;11828;51.508;18.118;2023-12-04T12:19:01;88.97;;;36.78;;
23310;SDS011;11828;51.508;18.118;2023-12-04T12:21:28;92.22;;;38.47;;
23310;SDS011;11828;51.508;18.118;2023-12-04T12:23:54;99.47;;;38.00;;
23310;SDS011;11828;51.508;18.118;2023-12-04T12:26:20;104.82;;;39.80;;
23310;SDS011;11828;51.508;18.118;2023-12-04T12:28:46;111.85;;;43.38;;
23310;SDS011;11828;51.508;18.118;2023-12-04T12:31:12;132.38;;;49.20;;
23310;SDS011;11828;51.508;18.118;2023-12-04T12:33:38;115.45;;;42.75;;
23310;SDS011;11828;51.508;18.118;2023-12-04T12:36:05;158.52;;;64.75;;
23310;SDS011;11828;51.508;18.118;2023-12-04T12:38:31;193.27;;;75.57;;
23310;SDS011;11828;51.508;18.118;2023-12-04T12:41:01;323.02;;;116.15;;
23310;SDS011;11828;51.508;18.118;2023-12-04T12:43:32;361.15;;;126.88;;
23310;SDS011;11828;51.508;18.118;2023-12-04T12:45:59;468.30;;;159.77;;
23310;SDS011;11828;51.508;18.118;2023-12-04T12:48:26;332.35;;;110.28;;
23310;SDS011;11828;51.508;18.118;2023-12-04T12:50:52;246.88;;;86.80;;
23310;SDS011;11828;51.508;18.118;2023-12-04T12:53:20;157.48;;;56.40;;
23310;SDS011;11828;51.508;18.118;2023-12-04T12:55:47;158.27;;;59.33;;
23310;SDS011;11828;51.508;18.118;2023-12-04T12:58:13;229.70;;;92.82;;
23310;SDS011;11828;51.508;18.118;2023-12-04T13:00:41;248.57;;;88.70;;
23310;SDS011;11828;51.508;18.118;2023-12-04T13:03:14;203.02;;;72.70;;
23310;SDS011;11828;51.508;18.118;2023-12-04T13:05:45;152.15;;;60.05;;
23310;SDS011;11828;51.508;18.118;2023-12-04T13:08:12;147.60;;;61.80;;
23310;SDS011;11828;51.508;18.118;2023-12-04T13:10:40;138.65;;;50.78;;
23310;SDS011;11828;51.508;18.118;2023-12-04T13:13:10;116.38;;;45.50;;
23310;SDS011;11828;51.508;18.118;2023-12-04T13:15:40;102.60;;;40.90;;
23310;SDS011;11828;51.508;18.118;2023-12-04T13:18:07;114.30;;;42.15;;
23310;SDS011;11828;51.508;18.118;2023-12-04T13:20:34;110.85;;;45.70;;
23310;SDS011;11828;51.508;18.118;2023-12-04T13:23:00;106.18;;;44.10;;
23310;SDS011;11828;51.508;18.118;2023-12-04T13:25:27;97.32;;;39.15;;
23310;SDS011;11828;51.508;18.118;2023-12-04T13:27:53;106.07;;;41.95;;
23310;SDS011;11828;51.508;18.118;2023-12-04T13:30:20;116.20;;;48.17;;
23310;SDS011;11828;51.508;18.118;2023-12-04T13:32:46;128.38;;;48.30;;
23310;SDS011;11828;51.508;18.118;2023-12-04T13:35:12;138.00;;;55.75;;
23310;SDS011;11828;51.508;18.118;2023-12-04T13:37:39;161.75;;;61.95;;
23310;SDS011;11828;51.508;18.118;2023-12-04T13:40:05;127.60;;;49.67;;
23310;SDS011;11828;51.508;18.118;2023-12-04T13:42:33;110.80;;;41.60;;
23310;SDS011;11828;51.508;18.118;2023-12-04T13:45:18;92.03;;;34.85;;
23310;SDS011;11828;51.508;18.118;2023-12-04T13:47:48;83.72;;;31.40;;
23310;SDS011;11828;51.508;18.118;2023-12-04T13:50:15;82.78;;;32.20;;
23310;SDS011;11828;51.508;18.118;2023-12-04T13:52:42;82.88;;;29.35;;
23310;SDS011;11828;51.508;18.118;2023-12-04T13:55:08;85.57;;;29.98;;
23310;SDS011;11828;51.508;18.118;2023-12-04T13:58:01;103.57;;;37.78;;
23310;SDS011;11828;51.508;18.118;2023-12-04T14:00:28;129.40;;;45.70;;
23310;SDS011;11828;51.508;18.118;2023-12-04T14:02:54;113.45;;;40.45;;
23310;SDS011;11828;51.508;18.118;2023-12-04T14:05:30;97.80;;;37.00;;
23310;SDS011;11828;51.508;18.118;2023-12-04T14:07:56;95.13;;;35.80;;